sensor_id;sensor_type;location;lat;lon;timestamp;pressure;altitude;pressure_sealevel;temperature
33267;BMP180;19638;49.080;11.896;2023-02-16T00:02:55;97330.00;;;1.00
33267;BMP180;19638;49.080;11.896;2023-02-16T00:07:00;97326.00;;;0.90
33267;BMP180;19638;49.080;11.896;2023-02-16T00:11:03;97326.00;;;0.90
33267;BMP180;19638;49.080;11.896;2023-02-16T00:15:23;97319.00;;;1.00
33267;BMP180;19638;49.080;11.896;2023-02-16T00:19:33;97310.00;;;1.00
33267;BMP180;19638;49.080;11.896;2023-02-16T00:23:38;97315.00;;;1.00
33267;BMP180;19638;49.080;11.896;2023-02-16T00:27:44;97316.00;;;1.10
33267;BMP180;19638;49.080;11.896;2023-02-16T00:31:52;97308.00;;;1.10
33267;BMP180;19638;49.080;11.896;2023-02-16T00:35:56;97310.00;;;1.00
33267;BMP180;19638;49.080;11.896;2023-02-16T00:40:00;97311.00;;;1.00
33267;BMP180;19638;49.080;11.896;2023-02-16T00:44:12;97307.00;;;1.00
33267;BMP180;19638;49.080;11.896;2023-02-16T00:48:16;97310.00;;;1.00
33267;BMP180;19638;49.080;11.896;2023-02-16T00:52:28;97304.00;;;0.90
33267;BMP180;19638;49.080;11.896;2023-02-16T00:56:35;97306.00;;;0.90
33267;BMP180;19638;49.080;11.896;2023-02-16T01:00:41;97308.00;;;0.90
33267;BMP180;19638;49.080;11.896;2023-02-16T01:04:44;97303.00;;;0.90
33267;BMP180;19638;49.080;11.896;2023-02-16T01:08:47;97299.00;;;0.90
33267;BMP180;19638;49.080;11.896;2023-02-16T01:13:26;97304.00;;;0.90
33267;BMP180;19638;49.080;11.896;2023-02-16T01:17:30;97304.00;;;0.90
33267;BMP180;19638;49.080;11.896;2023-02-16T01:21:33;97295.00;;;0.80
33267;BMP180;19638;49.080;11.896;2023-02-16T01:25:37;97292.00;;;0.80
33267;BMP180;19638;49.080;11.896;2023-02-16T01:29:44;97294.00;;;0.80
33267;BMP180;19638;49.080;11.896;2023-02-16T01:33:49;97288.00;;;0.80
33267;BMP180;19638;49.080;11.896;2023-02-16T01:37:53;97290.00;;;0.80
33267;BMP180;19638;49.080;11.896;2023-02-16T01:42:05;97296.00;;;0.80
33267;BMP180;19638;49.080;11.896;2023-02-16T01:46:17;97290.00;;;0.80
33267;BMP180;19638;49.080;11.896;2023-02-16T01:50:24;97285.00;;;0.80
33267;BMP180;19638;49.080;11.896;2023-02-16T01:54:39;97278.00;;;0.80
33267;BMP180;19638;49.080;11.896;2023-02-16T01:58:47;97274.00;;;0.70
33267;BMP180;19638;49.080;11.896;2023-02-16T02:02:59;97269.00;;;0.70
33267;BMP180;19638;49.080;11.896;2023-02-16T02:07:23;97269.00;;;0.70
33267;BMP180;19638;49.080;11.896;2023-02-16T02:11:32;97258.00;;;0.70
33267;BMP180;19638;49.080;11.896;2023-02-16T02:15:38;97256.00;;;0.70
33267;BMP180;19638;49.080;11.896;2023-02-16T02:19:55;97264.00;;;0.60
33267;BMP180;19638;49.080;11.896;2023-02-16T02:24:15;97249.00;;;0.70
33267;BMP180;19638;49.080;11.896;2023-02-16T02:28:29;97256.00;;;0.70
33267;BMP180;19638;49.080;11.896;2023-02-16T02:33:03;97248.00;;;0.70
33267;BMP180;19638;49.080;11.896;2023-02-16T02:37:14;97247.00;;;0.70
33267;BMP180;19638;49.080;11.896;2023-02-16T02:41:24;97247.00;;;0.70
33267;BMP180;19638;49.080;11.896;2023-02-16T02:45:53;97241.00;;;0.80
33267;BMP180;19638;49.080;11.896;2023-02-16T02:49:58;97246.00;;;0.90
33267;BMP180;19638;49.080;11.896;2023-02-16T02:54:05;97253.00;;;0.90
33267;BMP180;19638;49.080;11.896;2023-02-16T02:58:32;97239.00;;;0.80
33267;BMP180;19638;49.080;11.896;2023-02-16T03:03:06;97230.00;;;0.80
33267;BMP180;19638;49.080;11.896;2023-02-16T03:07:14;97235.00;;;0.80
33267;BMP180;19638;49.080;11.896;2023-02-16T03:11:19;97228.00;;;0.80
33267;BMP180;19638;49.080;11.896;2023-02-16T03:15:43;97228.00;;;0.80
33267;BMP180;19638;49.080;11.896;2023-02-16T03:19:50;97224.00;;;0.80
33267;BMP180;19638;49.080;11.896;2023-02-16T03:24:13;97225.00;;;0.80
33267;BMP180;19638;49.080;11.896;2023-02-16T03:28:38;97227.00;;;0.70
33267;BMP180;19638;49.080;11.896;2023-02-16T03:33:00;97230.00;;;0.60
33267;BMP180;19638;49.080;11.896;2023-02-16T03:37:05;97237.00;;;0.70
33267;BMP180;19638;49.080;11.896;2023-02-16T03:41:08;97227.00;;;0.60
33267;BMP180;19638;49.080;11.896;2023-02-16T03:45:13;97242.00;;;0.60
33267;BMP180;19638;49.080;11.896;2023-02-16T03:49:22;97243.00;;;0.60
33267;BMP180;19638;49.080;11.896;2023-02-16T03:53:27;97244.00;;;0.70
33267;BMP180;19638;49.080;11.896;2023-02-16T03:57:30;97237.00;;;0.70
33267;BMP180;19638;49.080;11.896;2023-02-16T04:01:37;97252.00;;;0.70
33267;BMP180;19638;49.080;11.896;2023-02-16T04:05:46;97248.00;;;0.70
33267;BMP180;19638;49.080;11.896;2023-02-16T04:09:51;97247.00;;;0.60
33267;BMP180;19638;49.080;11.896;2023-02-16T04:13:54;97242.00;;;0.70
33267;BMP180;19638;49.080;11.896;2023-02-16T04:18:01;97237.00;;;0.70
33267;BMP180;19638;49.080;11.896;2023-02-16T04:22:04;97242.00;;;0.80
33267;BMP180;19638;49.080;11.896;2023-02-16T04:26:11;97232.00;;;0.80
33267;BMP180;19638;49.080;11.896;2023-02-16T04:30:16;97240.00;;;0.80
33267;BMP180;19638;49.080;11.896;2023-02-16T04:34:20;97229.00;;;0.80
33267;BMP180;19638;49.080;11.896;2023-02-16T04:38:23;97228.00;;;0.90
33267;BMP180;19638;49.080;11.896;2023-02-16T04:42:28;97235.00;;;0.80
33267;BMP180;19638;49.080;11.896;2023-02-16T04:46:37;97229.00;;;0.90
33267;BMP180;19638;49.080;11.896;2023-02-16T04:50:40;97218.00;;;0.90
33267;BMP180;19638;49.080;11.896;2023-02-16T04:54:48;97232.00;;;0.90
33267;BMP180;19638;49.080;11.896;2023-02-16T04:58:54;97226.00;;;1.00
33267;BMP180;19638;49.080;11.896;2023-02-16T05:02:57;97215.00;;;1.00
33267;BMP180;19638;49.080;11.896;2023-02-16T05:07:06;97237.00;;;0.90
33267;BMP180;19638;49.080;11.896;2023-02-16T05:11:10;97231.00;;;0.80
33267;BMP180;19638;49.080;11.896;2023-02-16T05:15:33;97239.00;;;0.90
33267;BMP180;19638;49.080;11.896;2023-02-16T05:19:37;97231.00;;;0.90
33267;BMP180;19638;49.080;11.896;2023-02-16T05:23:41;97226.00;;;0.80
33267;BMP180;19638;49.080;11.896;2023-02-16T05:27:44;97242.00;;;0.80
33267;BMP180;19638;49.080;11.896;2023-02-16T05:31:58;97232.00;;;0.70
33267;BMP180;19638;49.080;11.896;2023-02-16T05:36:05;97235.00;;;0.70
33267;BMP180;19638;49.080;11.896;2023-02-16T05:40:09;97231.00;;;0.80
33267;BMP180;19638;49.080;11.896;2023-02-16T05:44:16;97229.00;;;0.70
33267;BMP180;19638;49.080;11.896;2023-02-16T05:48:23;97230.00;;;0.70
33267;BMP180;19638;49.080;11.896;2023-02-16T05:52:26;97231.00;;;0.80
33267;BMP180;19638;49.080;11.896;2023-02-16T05:56:29;97257.00;;;0.70
33267;BMP180;19638;49.080;11.896;2023-02-16T06:00:35;97279.00;;;0.70
33267;BMP180;19638;49.080;11.896;2023-02-16T06:04:50;97285.00;;;0.50
33267;BMP180;19638;49.080;11.896;2023-02-16T06:08:56;97277.00;;;0.40
33267;BMP180;19638;49.080;11.896;2023-02-16T06:13:01;97301.00;;;0.40
33267;BMP180;19638;49.080;11.896;2023-02-16T06:17:06;97288.00;;;0.30
33267;BMP180;19638;49.080;11.896;2023-02-16T06:21:12;97278.00;;;0.40
33267;BMP180;19638;49.080;11.896;2023-02-16T06:25:18;97289.00;;;0.50
33267;BMP180;19638;49.080;11.896;2023-02-16T06:29:21;97285.00;;;0.60
33267;BMP180;19638;49.080;11.896;2023-02-16T06:33:24;97284.00;;;0.70
33267;BMP180;19638;49.080;11.896;2023-02-16T06:37:31;97287.00;;;0.70
33267;BMP180;19638;49.080;11.896;2023-02-16T06:41:34;97295.00;;;0.70
33267;BMP180;19638;49.080;11.896;2023-02-16T06:45:42;97298.00;;;0.80
33267;BMP180;19638;49.080;11.896;2023-02-16T06:49:46;97301.00;;;0.70
33267;BMP180;19638;49.080;11.896;2023-02-16T06:53:51;97303.00;;;0.70
33267;BMP180;19638;49.080;11.896;2023-02-16T06:57:56;97300.00;;;0.70
33267;BMP180;19638;49.080;11.896;2023-02-16T07:02:00;97298.00;;;0.80
33267;BMP180;19638;49.080;11.896;2023-02-16T07:06:03;97299.00;;;0.80
33267;BMP180;19638;49.080;11.896;2023-02-16T07:10:11;97302.00;;;0.90
33267;BMP180;19638;49.080;11.896;2023-02-16T07:14:17;97300.00;;;1.00
33267;BMP180;19638;49.080;11.896;2023-02-16T07:18:20;97296.00;;;1.10
33267;BMP180;19638;49.080;11.896;2023-02-16T07:22:27;97296.00;;;1.20
33267;BMP180;19638;49.080;11.896;2023-02-16T07:26:32;97312.00;;;1.20
33267;BMP180;19638;49.080;11.896;2023-02-16T07:30:35;97311.00;;;1.10
33267;BMP180;19638;49.080;11.896;2023-02-16T07:34:43;97307.00;;;1.10
33267;BMP180;19638;49.080;11.896;2023-02-16T07:38:50;97312.00;;;1.20
33267;BMP180;19638;49.080;11.896;2023-02-16T07:42:59;97308.00;;;1.40
33267;BMP180;19638;49.080;11.896;2023-02-16T07:47:06;97317.00;;;1.60
33267;BMP180;19638;49.080;11.896;2023-02-16T07:51:09;97319.00;;;1.80
33267;BMP180;19638;49.080;11.896;2023-02-16T07:55:12;97318.00;;;1.90
33267;BMP180;19638;49.080;11.896;2023-02-16T07:59:17;97318.00;;;1.90
33267;BMP180;19638;49.080;11.896;2023-02-16T08:03:25;97321.00;;;2.00
33267;BMP180;19638;49.080;11.896;2023-02-16T08:07:28;97308.00;;;2.00
33267;BMP180;19638;49.080;11.896;2023-02-16T08:11:31;97317.00;;;2.10
33267;BMP180;19638;49.080;11.896;2023-02-16T08:15:41;97322.00;;;2.10
33267;BMP180;19638;49.080;11.896;2023-02-16T08:19:44;97319.00;;;2.10
33267;BMP180;19638;49.080;11.896;2023-02-16T08:23:52;97319.00;;;2.30
33267;BMP180;19638;49.080;11.896;2023-02-16T08:28:01;97321.00;;;2.40
33267;BMP180;19638;49.080;11.896;2023-02-16T08:32:06;97319.00;;;2.30
33267;BMP180;19638;49.080;11.896;2023-02-16T08:36:15;97317.00;;;2.30
33267;BMP180;19638;49.080;11.896;2023-02-16T08:40:20;97323.00;;;2.40
33267;BMP180;19638;49.080;11.896;2023-02-16T08:44:27;97332.00;;;2.50
33267;BMP180;19638;49.080;11.896;2023-02-16T08:48:38;97330.00;;;2.70
33267;BMP180;19638;49.080;11.896;2023-02-16T08:52:42;97331.00;;;2.80
33267;BMP180;19638;49.080;11.896;2023-02-16T08:56:49;97335.00;;;3.00
33267;BMP180;19638;49.080;11.896;2023-02-16T09:00:55;97344.00;;;3.10
33267;BMP180;19638;49.080;11.896;2023-02-16T09:05:01;97350.00;;;3.10
33267;BMP180;19638;49.080;11.896;2023-02-16T09:09:07;97332.00;;;3.20
33267;BMP180;19638;49.080;11.896;2023-02-16T09:13:11;97345.00;;;3.20
33267;BMP180;19638;49.080;11.896;2023-02-16T09:17:15;97340.00;;;3.40
33267;BMP180;19638;49.080;11.896;2023-02-16T09:21:24;97350.00;;;3.40
33267;BMP180;19638;49.080;11.896;2023-02-16T09:25:32;97356.00;;;3.40
33267;BMP180;19638;49.080;11.896;2023-02-16T09:29:35;97359.00;;;3.60
33267;BMP180;19638;49.080;11.896;2023-02-16T09:33:42;97353.00;;;3.70
33267;BMP180;19638;49.080;11.896;2023-02-16T09:37:49;97359.00;;;3.70
33267;BMP180;19638;49.080;11.896;2023-02-16T09:42:09;97354.00;;;3.80
33267;BMP180;19638;49.080;11.896;2023-02-16T09:46:17;97360.00;;;4.00
33267;BMP180;19638;49.080;11.896;2023-02-16T09:50:24;97351.00;;;4.20
33267;BMP180;19638;49.080;11.896;2023-02-16T09:54:52;97361.00;;;4.30
33267;BMP180;19638;49.080;11.896;2023-02-16T09:59:03;97359.00;;;4.30
33267;BMP180;19638;49.080;11.896;2023-02-16T10:07:46;97356.00;;;4.60
33267;BMP180;19638;49.080;11.896;2023-02-16T10:11:58;97364.00;;;4.60
33267;BMP180;19638;49.080;11.896;2023-02-16T10:16:05;97359.00;;;4.60
33267;BMP180;19638;49.080;11.896;2023-02-16T10:20:14;97364.00;;;4.70
33267;BMP180;19638;49.080;11.896;2023-02-16T10:24:23;97366.00;;;4.80
33267;BMP180;19638;49.080;11.896;2023-02-16T10:28:36;97363.00;;;5.10
33267;BMP180;19638;49.080;11.896;2023-02-16T10:32:54;97361.00;;;5.20
33267;BMP180;19638;49.080;11.896;2023-02-16T10:37:13;97355.00;;;5.50
33267;BMP180;19638;49.080;11.896;2023-02-16T10:41:26;97353.00;;;5.80
33267;BMP180;19638;49.080;11.896;2023-02-16T10:45:38;97357.00;;;6.20
33267;BMP180;19638;49.080;11.896;2023-02-16T10:49:48;97354.00;;;6.30
33267;BMP180;19638;49.080;11.896;2023-02-16T10:53:54;97347.00;;;6.30
33267;BMP180;19638;49.080;11.896;2023-02-16T10:58:03;97342.00;;;6.50
33267;BMP180;19638;49.080;11.896;2023-02-16T11:02:17;97333.00;;;6.70
33267;BMP180;19638;49.080;11.896;2023-02-16T11:06:27;97332.00;;;7.00
33267;BMP180;19638;49.080;11.896;2023-02-16T11:10:39;97320.00;;;7.00
33267;BMP180;19638;49.080;11.896;2023-02-16T11:14:50;97318.00;;;7.30
33267;BMP180;19638;49.080;11.896;2023-02-16T11:19:00;97319.00;;;7.40
33267;BMP180;19638;49.080;11.896;2023-02-16T11:23:20;97319.00;;;7.50
33267;BMP180;19638;49.080;11.896;2023-02-16T11:27:29;97320.00;;;7.70
33267;BMP180;19638;49.080;11.896;2023-02-16T11:31:37;97322.00;;;7.80
33267;BMP180;19638;49.080;11.896;2023-02-16T11:35:43;97307.00;;;7.90
33267;BMP180;19638;49.080;11.896;2023-02-16T11:39:52;97309.00;;;7.90
33267;BMP180;19638;49.080;11.896;2023-02-16T11:44:00;97309.00;;;7.80
33267;BMP180;19638;49.080;11.896;2023-02-16T11:48:10;97294.00;;;7.90
33267;BMP180;19638;49.080;11.896;2023-02-16T11:52:31;97293.00;;;7.90
33267;BMP180;19638;49.080;11.896;2023-02-16T11:56:38;97299.00;;;7.80
33267;BMP180;19638;49.080;11.896;2023-02-16T12:00:48;97284.00;;;7.80
33267;BMP180;19638;49.080;11.896;2023-02-16T12:05:08;97281.00;;;8.10
33267;BMP180;19638;49.080;11.896;2023-02-16T12:09:27;97273.00;;;8.10
33267;BMP180;19638;49.080;11.896;2023-02-16T12:13:37;97280.00;;;8.00
33267;BMP180;19638;49.080;11.896;2023-02-16T12:18:00;97277.00;;;8.10
33267;BMP180;19638;49.080;11.896;2023-02-16T12:22:21;97261.00;;;8.10
33267;BMP180;19638;49.080;11.896;2023-02-16T12:26:36;97272.00;;;7.80
33267;BMP180;19638;49.080;11.896;2023-02-16T12:30:51;97258.00;;;7.90
33267;BMP180;19638;49.080;11.896;2023-02-16T12:35:13;97258.00;;;8.40
33267;BMP180;19638;49.080;11.896;2023-02-16T12:39:29;97264.00;;;9.00
33267;BMP180;19638;49.080;11.896;2023-02-16T12:43:37;97259.00;;;9.20
33267;BMP180;19638;49.080;11.896;2023-02-16T12:47:49;97257.00;;;9.10
33267;BMP180;19638;49.080;11.896;2023-02-16T12:51:58;97245.00;;;9.10
33267;BMP180;19638;49.080;11.896;2023-02-16T12:56:15;97242.00;;;8.80
33267;BMP180;19638;49.080;11.896;2023-02-16T13:00:25;97233.00;;;8.60
33267;BMP180;19638;49.080;11.896;2023-02-16T13:04:38;97224.00;;;8.20
33267;BMP180;19638;49.080;11.896;2023-02-16T13:08:47;97226.00;;;8.00
33267;BMP180;19638;49.080;11.896;2023-02-16T13:12:58;97222.00;;;8.10
33267;BMP180;19638;49.080;11.896;2023-02-16T13:17:10;97223.00;;;8.20
33267;BMP180;19638;49.080;11.896;2023-02-16T13:21:27;97213.00;;;8.40
33267;BMP180;19638;49.080;11.896;2023-02-16T13:26:12;97215.00;;;8.40
33267;BMP180;19638;49.080;11.896;2023-02-16T13:30:56;97217.00;;;8.50
33267;BMP180;19638;49.080;11.896;2023-02-16T13:35:28;97214.00;;;8.60
33267;BMP180;19638;49.080;11.896;2023-02-16T13:39:40;97209.00;;;8.70
33267;BMP180;19638;49.080;11.896;2023-02-16T13:43:46;97195.00;;;8.80
33267;BMP180;19638;49.080;11.896;2023-02-16T13:47:57;97196.00;;;8.70
33267;BMP180;19638;49.080;11.896;2023-02-16T13:52:05;97199.00;;;8.60
33267;BMP180;19638;49.080;11.896;2023-02-16T13:56:19;97195.00;;;8.60
33267;BMP180;19638;49.080;11.896;2023-02-16T14:00:33;97187.00;;;8.50
33267;BMP180;19638;49.080;11.896;2023-02-16T14:05:09;97188.00;;;8.40
33267;BMP180;19638;49.080;11.896;2023-02-16T14:09:46;97190.00;;;8.30
33267;BMP180;19638;49.080;11.896;2023-02-16T14:13:50;97185.00;;;8.20
33267;BMP180;19638;49.080;11.896;2023-02-16T14:17:53;97183.00;;;8.10
33267;BMP180;19638;49.080;11.896;2023-02-16T14:22:08;97175.00;;;7.80
33267;BMP180;19638;49.080;11.896;2023-02-16T14:26:14;97184.00;;;7.60
33267;BMP180;19638;49.080;11.896;2023-02-16T14:30:24;97184.00;;;7.60
33267;BMP180;19638;49.080;11.896;2023-02-16T14:34:34;97195.00;;;7.50
33267;BMP180;19638;49.080;11.896;2023-02-16T14:38:44;97183.00;;;7.50
33267;BMP180;19638;49.080;11.896;2023-02-16T14:42:57;97190.00;;;7.50
33267;BMP180;19638;49.080;11.896;2023-02-16T14:47:14;97192.00;;;7.40
33267;BMP180;19638;49.080;11.896;2023-02-16T14:52:01;97181.00;;;7.30
33267;BMP180;19638;49.080;11.896;2023-02-16T14:56:36;97196.00;;;7.20
33267;BMP180;19638;49.080;11.896;2023-02-16T15:00:47;97196.00;;;7.10
33267;BMP180;19638;49.080;11.896;2023-02-16T15:04:57;97193.00;;;7.10
33267;BMP180;19638;49.080;11.896;2023-02-16T15:09:13;97194.00;;;7.10
33267;BMP180;19638;49.080;11.896;2023-02-16T15:13:18;97187.00;;;7.10
33267;BMP180;19638;49.080;11.896;2023-02-16T15:17:29;97182.00;;;7.10
33267;BMP180;19638;49.080;11.896;2023-02-16T15:21:34;97194.00;;;7.10
33267;BMP180;19638;49.080;11.896;2023-02-16T15:25:52;97196.00;;;7.20
33267;BMP180;19638;49.080;11.896;2023-02-16T15:30:08;97183.00;;;7.10
33267;BMP180;19638;49.080;11.896;2023-02-16T15:34:30;97185.00;;;7.00
33267;BMP180;19638;49.080;11.896;2023-02-16T15:38:37;97181.00;;;6.80
33267;BMP180;19638;49.080;11.896;2023-02-16T15:42:42;97177.00;;;6.60
33267;BMP180;19638;49.080;11.896;2023-02-16T15:46:48;97183.00;;;6.40
33267;BMP180;19638;49.080;11.896;2023-02-16T15:51:01;97182.00;;;6.20
33267;BMP180;19638;49.080;11.896;2023-02-16T15:55:10;97176.00;;;6.00
33267;BMP180;19638;49.080;11.896;2023-02-16T15:59:26;97177.00;;;5.80
33267;BMP180;19638;49.080;11.896;2023-02-16T16:03:29;97176.00;;;5.70
33267;BMP180;19638;49.080;11.896;2023-02-16T16:07:36;97178.00;;;5.70
33267;BMP180;19638;49.080;11.896;2023-02-16T16:11:40;97183.00;;;5.60
33267;BMP180;19638;49.080;11.896;2023-02-16T16:15:47;97181.00;;;5.50
33267;BMP180;19638;49.080;11.896;2023-02-16T16:19:55;97183.00;;;5.40
33267;BMP180;19638;49.080;11.896;2023-02-16T16:24:02;97183.00;;;5.40
33267;BMP180;19638;49.080;11.896;2023-02-16T16:28:09;97182.00;;;5.30
33267;BMP180;19638;49.080;11.896;2023-02-16T16:32:18;97183.00;;;5.30
33267;BMP180;19638;49.080;11.896;2023-02-16T16:36:28;97179.00;;;5.20
33267;BMP180;19638;49.080;11.896;2023-02-16T16:40:35;97173.00;;;5.00
33267;BMP180;19638;49.080;11.896;2023-02-16T16:44:41;97183.00;;;5.00
33267;BMP180;19638;49.080;11.896;2023-02-16T16:48:45;97186.00;;;4.90
33267;BMP180;19638;49.080;11.896;2023-02-16T16:52:51;97189.00;;;4.80
33267;BMP180;19638;49.080;11.896;2023-02-16T16:57:03;97186.00;;;4.80
33267;BMP180;19638;49.080;11.896;2023-02-16T17:01:11;97183.00;;;4.80
33267;BMP180;19638;49.080;11.896;2023-02-16T17:05:18;97191.00;;;4.70
33267;BMP180;19638;49.080;11.896;2023-02-16T17:09:22;97194.00;;;4.50
33267;BMP180;19638;49.080;11.896;2023-02-16T17:13:27;97186.00;;;4.40
33267;BMP180;19638;49.080;11.896;2023-02-16T17:17:33;97189.00;;;4.40
33267;BMP180;19638;49.080;11.896;2023-02-16T17:21:36;97199.00;;;4.40
33267;BMP180;19638;49.080;11.896;2023-02-16T17:25:40;97183.00;;;4.30
33267;BMP180;19638;49.080;11.896;2023-02-16T17:29:45;97188.00;;;4.30
33267;BMP180;19638;49.080;11.896;2023-02-16T17:33:50;97177.00;;;4.20
33267;BMP180;19638;49.080;11.896;2023-02-16T17:37:56;97170.00;;;4.20
33267;BMP180;19638;49.080;11.896;2023-02-16T17:42:05;97172.00;;;4.20
33267;BMP180;19638;49.080;11.896;2023-02-16T17:46:14;97171.00;;;4.10
33267;BMP180;19638;49.080;11.896;2023-02-16T17:50:19;97169.00;;;4.10
33267;BMP180;19638;49.080;11.896;2023-02-16T17:54:22;97180.00;;;4.00
33267;BMP180;19638;49.080;11.896;2023-02-16T17:58:27;97173.00;;;4.00
33267;BMP180;19638;49.080;11.896;2023-02-16T18:02:33;97167.00;;;4.00
33267;BMP180;19638;49.080;11.896;2023-02-16T18:06:39;97171.00;;;3.90
33267;BMP180;19638;49.080;11.896;2023-02-16T18:10:46;97161.00;;;3.90
33267;BMP180;19638;49.080;11.896;2023-02-16T18:14:49;97172.00;;;3.90
33267;BMP180;19638;49.080;11.896;2023-02-16T18:18:54;97165.00;;;3.90
33267;BMP180;19638;49.080;11.896;2023-02-16T18:23:03;97168.00;;;3.90
33267;BMP180;19638;49.080;11.896;2023-02-16T18:27:06;97171.00;;;3.90
33267;BMP180;19638;49.080;11.896;2023-02-16T18:31:10;97171.00;;;3.90
33267;BMP180;19638;49.080;11.896;2023-02-16T18:35:18;97167.00;;;3.90
33267;BMP180;19638;49.080;11.896;2023-02-16T18:39:21;97171.00;;;3.80
33267;BMP180;19638;49.080;11.896;2023-02-16T18:43:25;97167.00;;;3.80
33267;BMP180;19638;49.080;11.896;2023-02-16T18:47:29;97168.00;;;3.70
33267;BMP180;19638;49.080;11.896;2023-02-16T18:51:46;97169.00;;;3.70
33267;BMP180;19638;49.080;11.896;2023-02-16T18:55:49;97172.00;;;3.80
33267;BMP180;19638;49.080;11.896;2023-02-16T18:59:56;97169.00;;;3.70
33267;BMP180;19638;49.080;11.896;2023-02-16T19:04:02;97169.00;;;3.70
33267;BMP180;19638;49.080;11.896;2023-02-16T19:08:08;97177.00;;;3.60
33267;BMP180;19638;49.080;11.896;2023-02-16T19:12:11;97181.00;;;3.60
33267;BMP180;19638;49.080;11.896;2023-02-16T19:16:19;97172.00;;;3.50
33267;BMP180;19638;49.080;11.896;2023-02-16T19:20:22;97173.00;;;3.50
33267;BMP180;19638;49.080;11.896;2023-02-16T19:24:27;97169.00;;;3.50
33267;BMP180;19638;49.080;11.896;2023-02-16T19:28:31;97164.00;;;3.50
33267;BMP180;19638;49.080;11.896;2023-02-16T19:32:40;97173.00;;;3.50
33267;BMP180;19638;49.080;11.896;2023-02-16T19:36:46;97165.00;;;3.50
33267;BMP180;19638;49.080;11.896;2023-02-16T19:40:50;97172.00;;;3.40
33267;BMP180;19638;49.080;11.896;2023-02-16T19:44:54;97168.00;;;3.40
33267;BMP180;19638;49.080;11.896;2023-02-16T19:48:58;97166.00;;;3.40
33267;BMP180;19638;49.080;11.896;2023-02-16T19:53:01;97172.00;;;3.40
33267;BMP180;19638;49.080;11.896;2023-02-16T19:57:06;97169.00;;;3.40
33267;BMP180;19638;49.080;11.896;2023-02-16T20:01:14;97169.00;;;3.40
33267;BMP180;19638;49.080;11.896;2023-02-16T20:05:17;97166.00;;;3.40
33267;BMP180;19638;49.080;11.896;2023-02-16T20:09:22;97171.00;;;3.50
33267;BMP180;19638;49.080;11.896;2023-02-16T20:13:29;97172.00;;;3.50
33267;BMP180;19638;49.080;11.896;2023-02-16T20:17:35;97176.00;;;3.50
33267;BMP180;19638;49.080;11.896;2023-02-16T20:21:41;97166.00;;;3.50
33267;BMP180;19638;49.080;11.896;2023-02-16T20:25:46;97167.00;;;3.40
33267;BMP180;19638;49.080;11.896;2023-02-16T20:29:56;97163.00;;;3.50
33267;BMP180;19638;49.080;11.896;2023-02-16T20:34:04;97168.00;;;3.50
33267;BMP180;19638;49.080;11.896;2023-02-16T20:38:08;97159.00;;;3.50
33267;BMP180;19638;49.080;11.896;2023-02-16T20:42:11;97158.00;;;3.50
33267;BMP180;19638;49.080;11.896;2023-02-16T20:46:16;97152.00;;;3.50
33267;BMP180;19638;49.080;11.896;2023-02-16T20:50:21;97147.00;;;3.50
33267;BMP180;19638;49.080;11.896;2023-02-16T20:54:28;97152.00;;;3.50
33267;BMP180;19638;49.080;11.896;2023-02-16T20:58:32;97140.00;;;3.50
33267;BMP180;19638;49.080;11.896;2023-02-16T21:02:39;97138.00;;;3.50
33267;BMP180;19638;49.080;11.896;2023-02-16T21:06:44;97139.00;;;3.40
33267;BMP180;19638;49.080;11.896;2023-02-16T21:10:48;97131.00;;;3.40
33267;BMP180;19638;49.080;11.896;2023-02-16T21:14:52;97135.00;;;3.50
33267;BMP180;19638;49.080;11.896;2023-02-16T21:18:56;97135.00;;;3.50
33267;BMP180;19638;49.080;11.896;2023-02-16T21:23:00;97136.00;;;3.50
33267;BMP180;19638;49.080;11.896;2023-02-16T21:27:04;97125.00;;;3.50
33267;BMP180;19638;49.080;11.896;2023-02-16T21:31:13;97128.00;;;3.60
33267;BMP180;19638;49.080;11.896;2023-02-16T21:35:18;97116.00;;;3.60
33267;BMP180;19638;49.080;11.896;2023-02-16T21:39:23;97121.00;;;3.70
33267;BMP180;19638;49.080;11.896;2023-02-16T21:43:47;97119.00;;;3.70
33267;BMP180;19638;49.080;11.896;2023-02-16T21:47:50;97112.00;;;3.70
33267;BMP180;19638;49.080;11.896;2023-02-16T21:52:15;97116.00;;;3.70
33267;BMP180;19638;49.080;11.896;2023-02-16T21:56:23;97107.00;;;3.70
33267;BMP180;19638;49.080;11.896;2023-02-16T22:00:28;97110.00;;;3.70
33267;BMP180;19638;49.080;11.896;2023-02-16T22:04:32;97118.00;;;3.70
33267;BMP180;19638;49.080;11.896;2023-02-16T22:08:37;97118.00;;;3.80
33267;BMP180;19638;49.080;11.896;2023-02-16T22:12:42;97118.00;;;3.70
33267;BMP180;19638;49.080;11.896;2023-02-16T22:16:46;97104.00;;;3.70
33267;BMP180;19638;49.080;11.896;2023-02-16T22:20:51;97110.00;;;3.70
33267;BMP180;19638;49.080;11.896;2023-02-16T22:24:55;97113.00;;;3.60
33267;BMP180;19638;49.080;11.896;2023-02-16T22:29:01;97119.00;;;3.60
33267;BMP180;19638;49.080;11.896;2023-02-16T22:33:04;97111.00;;;3.60
33267;BMP180;19638;49.080;11.896;2023-02-16T22:37:10;97099.00;;;3.50
33267;BMP180;19638;49.080;11.896;2023-02-16T22:41:16;97107.00;;;3.50
33267;BMP180;19638;49.080;11.896;2023-02-16T22:45:21;97102.00;;;3.40
33267;BMP180;19638;49.080;11.896;2023-02-16T22:49:25;97094.00;;;3.40
33267;BMP180;19638;49.080;11.896;2023-02-16T22:53:30;97078.00;;;3.30
33267;BMP180;19638;49.080;11.896;2023-02-16T22:57:39;97096.00;;;3.20
33267;BMP180;19638;49.080;11.896;2023-02-16T23:01:42;97093.00;;;3.20
33267;BMP180;19638;49.080;11.896;2023-02-16T23:05:49;97095.00;;;3.10
33267;BMP180;19638;49.080;11.896;2023-02-16T23:09:53;97097.00;;;3.20
33267;BMP180;19638;49.080;11.896;2023-02-16T23:13:57;97090.00;;;3.20
33267;BMP180;19638;49.080;11.896;2023-02-16T23:18:03;97090.00;;;3.20
33267;BMP180;19638;49.080;11.896;2023-02-16T23:22:06;97089.00;;;3.30
33267;BMP180;19638;49.080;11.896;2023-02-16T23:26:09;97082.00;;;3.30
33267;BMP180;19638;49.080;11.896;2023-02-16T23:30:16;97075.00;;;3.40
33267;BMP180;19638;49.080;11.896;2023-02-16T23:34:19;97081.00;;;3.40
33267;BMP180;19638;49.080;11.896;2023-02-16T23:38:25;97083.00;;;3.40
33267;BMP180;19638;49.080;11.896;2023-02-16T23:42:42;97082.00;;;3.50
33267;BMP180;19638;49.080;11.896;2023-02-16T23:46:48;97072.00;;;3.40
33267;BMP180;19638;49.080;11.896;2023-02-16T23:50:53;97081.00;;;3.20
33267;BMP180;19638;49.080;11.896;2023-02-16T23:54:56;97073.00;;;3.10
33267;BMP180;19638;49.080;11.896;2023-02-16T23:58:59;97066.00;;;3.00
